createdAt,value
2019-04-26T00:00:21.875Z,80.55
2019-04-26T00:01:22.363Z,80.38
2019-04-26T00:02:22.802Z,80.50
2019-04-26T00:03:23.233Z,80.24
2019-04-26T00:04:22.794Z,80.27
2019-04-26T00:05:34.502Z,80.00
2019-04-26T00:06:23.581Z,79.88
2019-04-26T00:07:24.963Z,80.10
2019-04-26T00:08:24.350Z,79.73
2019-04-26T00:09:25.661Z,80.13
2019-04-26T00:10:26.195Z,80.01
2019-04-26T00:11:26.099Z,80.33
2019-04-26T00:12:27.385Z,80.37
2019-04-26T00:13:26.732Z,80.00
2019-04-26T00:14:27.024Z,80.42
2019-04-26T00:15:28.522Z,80.50
2019-04-26T00:16:27.946Z,80.42
2019-04-26T00:17:29.402Z,80.54
2019-04-26T00:18:29.403Z,80.53
2019-04-26T00:19:29.923Z,80.69
2019-04-26T00:20:29.442Z,80.32
2019-04-26T00:21:30.921Z,80.40
2019-04-26T00:22:30.390Z,80.77
2019-04-26T00:23:31.814Z,80.96
2019-04-26T00:24:31.224Z,80.78
2019-04-26T00:25:32.640Z,80.65
2019-04-26T00:26:33.045Z,80.77
2019-04-26T00:27:33.480Z,80.97
2019-04-26T00:28:34.060Z,81.40
2019-04-26T00:29:34.474Z,81.40
2019-04-26T00:30:35.218Z,81.24
2019-04-26T00:31:35.797Z,81.26
2019-04-26T00:32:36.188Z,81.31
2019-04-26T00:32:44.743Z,81.20
2019-04-26T00:33:46.120Z,81.21
2019-04-26T00:34:46.741Z,81.05
2019-04-26T00:35:47.891Z,81.52
2019-04-26T00:36:47.165Z,81.55
2019-04-26T00:37:48.419Z,81.33
2019-04-26T00:38:48.693Z,81.30
2019-04-26T00:39:48.966Z,81.11
2019-04-26T00:40:49.290Z,81.44
2019-04-26T00:41:49.742Z,81.75
2019-04-26T00:42:50.176Z,81.90
2019-04-26T00:43:50.531Z,81.87
2019-04-26T00:44:50.753Z,81.88
2019-04-26T00:45:51.066Z,81.66
2019-04-26T00:46:51.745Z,81.92
2019-04-26T00:47:52.154Z,81.95
2019-04-26T00:48:52.719Z,82.14
2019-04-26T00:49:52.133Z,82.19
2019-04-26T00:50:53.627Z,82.28
2019-04-26T00:51:54.100Z,82.43
2019-04-26T00:52:54.555Z,82.44
2019-04-26T00:53:54.026Z,82.66
2019-04-26T00:54:55.400Z,82.29
2019-04-26T00:55:55.465Z,82.75
2019-04-26T00:56:55.893Z,82.77
2019-04-26T00:57:56.477Z,82.11
2019-04-26T00:58:56.906Z,82.02
2019-04-26T00:59:57.447Z,82.13
2019-04-26T01:00:57.864Z,82.15
2019-04-26T01:01:58.361Z,81.79
2019-04-26T01:02:58.704Z,81.41
2019-04-26T01:03:59.174Z,81.79
2019-04-26T01:04:59.531Z,81.82
2019-04-26T01:06:00.407Z,81.47
2019-04-26T01:06:59.188Z,81.62
2019-04-26T01:08:00.661Z,81.79
2019-04-26T01:09:01.161Z,81.50
2019-04-26T01:10:01.408Z,81.83
2019-04-26T01:11:02.004Z,82.09
2019-04-26T01:12:02.421Z,82.19
2019-04-26T01:13:02.810Z,81.99
2019-04-26T01:14:03.215Z,81.83
2019-04-26T01:15:03.698Z,81.90
2019-04-26T01:16:04.212Z,81.74
2019-04-26T01:17:04.641Z,81.97
2019-04-26T01:18:04.967Z,81.58
2019-04-26T01:19:05.668Z,81.90
2019-04-26T01:20:06.062Z,82.13
2019-04-26T01:20:14.657Z,81.78
2019-04-26T01:21:17.110Z,81.75
2019-04-26T01:22:15.557Z,81.95
2019-04-26T01:23:17.493Z,82.31
2019-04-26T01:24:16.893Z,82.07
2019-04-26T01:25:17.518Z,81.30
2019-04-26T01:26:17.733Z,81.51
2019-04-26T01:27:17.128Z,81.42
2019-04-26T01:28:18.490Z,81.88
2019-04-26T01:29:18.599Z,81.91
2019-04-26T01:30:18.356Z,81.95
2019-04-26T01:31:18.640Z,82.40
2019-04-26T01:32:19.215Z,82.22
2019-04-26T01:33:20.033Z,82.17
2019-04-26T01:34:20.343Z,82.22
2019-04-26T01:35:20.369Z,82.26
2019-04-26T01:36:20.538Z,82.21
2019-04-26T01:37:20.662Z,82.03
2019-04-26T01:38:21.794Z,82.44
2019-04-26T01:39:22.349Z,82.78
2019-04-26T01:40:22.040Z,82.87
2019-04-26T01:41:22.362Z,82.95
2019-04-26T01:42:22.671Z,83.05
2019-04-26T01:43:24.424Z,82.92
2019-04-26T01:44:24.558Z,82.99
2019-04-26T01:45:23.711Z,83.08
2019-04-26T01:46:25.071Z,83.20
2019-04-26T01:47:26.254Z,83.17
2019-04-26T01:48:25.070Z,83.31
2019-04-26T01:49:26.189Z,83.42
2019-04-26T01:50:25.751Z,83.31
2019-04-26T01:51:27.133Z,83.31
2019-04-26T01:52:27.782Z,83.27
2019-04-26T01:53:28.795Z,83.12
2019-04-26T01:54:27.830Z,83.44
2019-04-26T01:55:29.073Z,83.41
2019-04-26T01:56:29.210Z,83.15
2019-04-26T01:57:29.437Z,83.05
2019-04-26T01:58:29.335Z,82.79
2019-04-26T01:59:29.527Z,83.25
2019-04-26T02:00:29.583Z,82.65
2019-04-26T02:01:29.850Z,82.80
2019-04-26T02:02:32.001Z,83.15
2019-04-26T02:03:30.615Z,82.85
2019-04-26T02:04:32.070Z,82.79
2019-04-26T02:05:32.017Z,82.30
2019-04-26T02:06:34.910Z,82.46
2019-04-26T02:07:32.522Z,82.37
2019-04-26T02:08:32.483Z,82.80
2019-04-26T02:09:32.793Z,82.99
2019-04-26T02:10:32.940Z,83.05
2019-04-26T02:11:34.363Z,82.66
2019-04-26T02:12:34.763Z,82.70
2019-04-26T02:13:35.139Z,82.37
2019-04-26T02:14:35.547Z,82.59
2019-04-26T02:15:35.847Z,82.79
2019-04-26T02:16:36.155Z,82.98
2019-04-26T02:17:36.389Z,83.08
2019-04-26T02:18:36.775Z,83.23
2019-04-26T02:19:37.156Z,83.18
2019-04-26T02:20:37.431Z,82.93
2019-04-26T02:21:37.813Z,82.98
2019-04-26T02:22:38.478Z,82.98
2019-04-26T02:23:38.154Z,83.18
2019-04-26T02:24:39.418Z,82.83
2019-04-26T02:25:39.755Z,82.93
2019-04-26T02:26:40.104Z,83.13
2019-04-26T02:27:40.594Z,83.09
2019-04-26T02:28:41.236Z,83.20
2019-04-26T02:29:41.693Z,83.10
2019-04-26T02:30:42.246Z,83.03
2019-04-26T02:31:42.717Z,82.88
2019-04-26T02:32:43.072Z,82.92
2019-04-26T02:33:43.607Z,83.35
2019-04-26T02:34:44.067Z,83.33
2019-04-26T02:34:52.599Z,82.84
2019-04-26T02:35:53.945Z,82.83
2019-04-26T02:36:58.513Z,82.85
2019-04-26T02:37:53.736Z,82.40
2019-04-26T02:38:55.405Z,82.78
2019-04-26T02:39:55.696Z,82.96
2019-04-26T02:40:55.958Z,82.82
2019-04-26T02:41:56.245Z,82.88
2019-04-26T02:42:55.649Z,83.06
2019-04-26T02:43:56.918Z,83.05
2019-04-26T02:44:57.505Z,82.81
2019-04-26T02:45:58.058Z,82.82
2019-04-26T02:46:58.384Z,82.62
2019-04-26T02:47:58.844Z,82.87
2019-04-26T02:48:59.450Z,82.79
2019-04-26T02:49:59.742Z,82.87
2019-04-26T02:51:00.156Z,82.90
2019-04-26T02:52:00.527Z,83.07
2019-04-26T02:53:00.930Z,83.01
2019-04-26T02:54:01.407Z,82.77
2019-04-26T02:55:01.848Z,82.57
2019-04-26T02:56:02.772Z,82.76
2019-04-26T02:57:03.211Z,82.82
2019-04-26T02:58:03.566Z,82.73
2019-04-26T02:59:03.973Z,82.91
2019-04-26T03:00:04.370Z,83.37
2019-04-26T03:01:04.707Z,83.63
2019-04-26T03:02:05.052Z,83.42
2019-04-26T03:03:05.311Z,83.71
2019-04-26T03:04:05.629Z,83.38
2019-04-26T03:05:06.426Z,83.36
2019-04-26T03:06:06.760Z,83.66
2019-04-26T03:07:07.384Z,83.93
2019-04-26T03:08:07.851Z,84.12
2019-04-26T03:09:08.212Z,84.39
2019-04-26T03:10:08.770Z,84.67
2019-04-26T03:11:07.763Z,85.38
2019-04-26T03:12:09.202Z,85.84
2019-04-26T03:13:09.580Z,86.76
2019-04-26T03:14:09.993Z,86.83
2019-04-26T03:15:14.120Z,87.52
2019-04-26T03:16:09.875Z,87.80
2019-04-26T03:17:11.272Z,87.14
2019-04-26T03:18:11.702Z,88.23
2019-04-26T03:19:12.131Z,89.57
2019-04-26T03:20:12.451Z,89.54
2019-04-26T03:21:13.047Z,90.28
2019-04-26T03:21:21.570Z,90.01
2019-04-26T03:22:22.860Z,89.95
2019-04-26T03:23:23.224Z,90.08
2019-04-26T03:24:23.643Z,89.99
2019-04-26T03:25:23.890Z,90.29
2019-04-26T03:26:24.208Z,90.45
2019-04-26T03:27:24.560Z,90.12
2019-04-26T03:28:25.142Z,91.15
2019-04-26T03:29:24.428Z,91.53
2019-04-26T03:30:25.941Z,91.01
2019-04-26T03:31:25.352Z,91.13
2019-04-26T03:32:26.754Z,92.25
2019-04-26T03:33:27.161Z,91.88
2019-04-26T03:34:26.497Z,91.90
2019-04-26T03:35:27.889Z,92.17
2019-04-26T03:36:28.151Z,92.76
2019-04-26T03:37:28.498Z,92.92
2019-04-26T03:38:29.126Z,93.60
2019-04-26T03:39:29.520Z,92.77
2019-04-26T03:40:29.905Z,92.81
2019-04-26T03:41:30.164Z,92.08
2019-04-26T03:42:30.606Z,92.74
2019-04-26T03:43:30.843Z,93.54
2019-04-26T03:44:31.202Z,92.22
2019-04-26T03:45:30.429Z,91.95
2019-04-26T03:46:31.813Z,91.49
2019-04-26T03:47:30.995Z,91.19
2019-04-26T03:48:33.929Z,91.76
2019-04-26T03:49:31.843Z,91.79
2019-04-26T03:50:35.242Z,91.94
2019-04-26T03:51:33.808Z,92.69
2019-04-26T03:52:35.334Z,93.06
2019-04-26T03:53:35.464Z,92.83
2019-04-26T03:55:54.648Z,91.54
2019-04-26T03:56:55.165Z,91.55
2019-04-26T03:57:56.516Z,92.40
2019-04-26T03:58:56.780Z,91.72
2019-04-26T03:59:57.323Z,91.53
2019-04-26T04:00:57.663Z,92.58
2019-04-26T04:01:58.109Z,93.24
2019-04-26T04:02:58.657Z,91.51
2019-04-26T04:03:58.988Z,92.58
2019-04-26T04:04:59.269Z,92.47
2019-04-26T04:05:59.715Z,93.00
2019-04-26T04:07:04.724Z,92.99
2019-04-26T04:07:59.698Z,92.84
2019-04-26T04:09:01.148Z,92.39
2019-04-26T04:10:01.657Z,93.28
2019-04-26T04:11:02.109Z,93.48
2019-04-26T04:12:10.818Z,93.62
2019-04-26T04:13:01.943Z,93.40
2019-04-26T04:14:03.456Z,94.05
2019-04-26T04:15:02.657Z,93.90
2019-04-26T04:16:02.919Z,94.80
2019-04-26T04:17:04.327Z,94.33
2019-04-26T04:18:04.624Z,95.02
2019-04-26T04:19:04.899Z,96.18
2019-04-26T04:20:05.269Z,95.83
2019-04-26T04:21:05.628Z,95.88
2019-04-26T04:22:05.120Z,95.64
2019-04-26T04:23:06.461Z,94.94
2019-04-26T04:24:06.708Z,95.53
2019-04-26T04:25:07.024Z,95.00
2019-04-26T04:26:07.518Z,94.50
2019-04-26T04:27:07.909Z,94.42
2019-04-26T04:28:08.360Z,94.37
2019-04-26T04:29:08.708Z,93.90
2019-04-26T04:30:09.123Z,93.44
2019-04-26T04:31:09.484Z,94.62
2019-04-26T04:32:10.192Z,95.02
2019-04-26T04:33:09.932Z,94.13
2019-04-26T04:34:11.438Z,94.45
2019-04-26T04:35:11.954Z,95.22
2019-04-26T04:36:12.410Z,94.61
2019-04-26T04:37:12.661Z,95.37
2019-04-26T04:38:12.961Z,94.93
2019-04-26T04:39:13.495Z,94.82
2019-04-26T04:40:12.784Z,95.75
2019-04-26T04:41:14.065Z,95.20
2019-04-26T04:42:14.447Z,95.71
2019-04-26T04:42:22.990Z,95.84
2019-04-26T04:43:24.506Z,95.87
2019-04-26T04:44:23.760Z,95.82
2019-04-26T04:45:24.025Z,95.35
2019-04-26T04:46:25.611Z,96.23
2019-04-26T04:47:25.801Z,96.57
2019-04-26T04:48:25.438Z,96.21
2019-04-26T04:49:26.887Z,96.62
2019-04-26T04:50:27.256Z,96.05
2019-04-26T04:51:27.801Z,96.25
2019-04-26T04:52:28.294Z,96.50
2019-04-26T04:53:28.753Z,96.81
2019-04-26T04:54:29.114Z,96.41
2019-04-26T04:55:29.485Z,96.83
2019-04-26T04:56:29.755Z,96.68
2019-04-26T04:57:30.380Z,96.67
2019-04-26T04:58:29.680Z,96.29
2019-04-26T04:59:30.958Z,96.65
2019-04-26T05:00:31.262Z,96.44
2019-04-26T05:01:32.017Z,96.46
2019-04-26T05:02:31.385Z,96.63
2019-04-26T05:03:31.705Z,96.87
2019-04-26T05:04:33.015Z,97.16
2019-04-26T05:05:33.242Z,96.95
2019-04-26T05:06:33.747Z,97.00
2019-04-26T05:07:34.050Z,96.12
2019-04-26T05:08:34.449Z,96.48
2019-04-26T05:09:34.762Z,95.92
2019-04-26T05:10:35.209Z,96.68
2019-04-26T05:11:35.554Z,97.15
2019-04-26T05:12:34.869Z,97.02
2019-04-26T05:13:36.160Z,96.55
2019-04-26T05:14:36.539Z,96.86
2019-04-26T05:15:37.054Z,97.21
2019-04-26T05:16:37.388Z,96.55
2019-04-26T05:17:37.742Z,95.95
2019-04-26T05:18:38.061Z,96.47
2019-04-26T05:19:38.357Z,96.02
2019-04-26T05:20:38.684Z,95.92
2019-04-26T05:21:39.111Z,95.59
2019-04-26T05:22:39.390Z,95.31
2019-04-26T05:23:39.668Z,95.39
2019-04-26T05:24:40.094Z,95.21
2019-04-26T05:25:40.592Z,95.60
2019-04-26T05:26:39.697Z,95.09
2019-04-26T05:27:40.969Z,95.58
2019-04-26T05:28:41.259Z,94.76
2019-04-26T05:29:41.743Z,94.89
2019-04-26T05:30:42.593Z,96.12
2019-04-26T05:31:45.818Z,95.42
2019-04-26T05:32:42.481Z,95.54
2019-04-26T05:33:43.831Z,96.35
2019-04-26T05:33:52.553Z,96.08
2019-04-26T05:34:52.915Z,96.03
2019-04-26T05:35:53.230Z,94.98
2019-04-26T05:36:56.807Z,95.35
2019-04-26T05:37:55.179Z,95.53
2019-04-26T05:38:55.365Z,95.76
2019-04-26T05:39:55.318Z,96.32
2019-04-26T05:40:55.643Z,96.45
2019-04-26T05:41:55.717Z,95.15
2019-04-26T05:42:55.951Z,95.67
2019-04-26T05:43:58.006Z,95.48
2019-04-26T05:44:56.792Z,95.68
2019-04-26T05:45:58.084Z,95.20
2019-04-26T05:46:57.900Z,95.59
2019-04-26T05:48:08.236Z,95.32
2019-04-26T05:48:58.498Z,95.02
2019-04-26T05:49:59.833Z,95.93
2019-04-26T05:51:00.307Z,95.42
2019-04-26T05:52:02.063Z,95.03
2019-04-26T05:53:00.365Z,95.61
2019-04-26T05:54:01.730Z,95.92
2019-04-26T05:55:02.693Z,96.12
2019-04-26T05:56:02.509Z,96.31
2019-04-26T05:57:02.659Z,96.33
2019-04-26T05:58:02.902Z,96.79
2019-04-26T05:59:03.099Z,96.53
2019-04-26T06:00:03.026Z,96.61
2019-04-26T06:01:04.111Z,97.12
2019-04-26T06:02:04.649Z,97.67
2019-04-26T06:03:05.439Z,98.22
2019-04-26T06:04:06.109Z,97.78
2019-04-26T06:05:06.266Z,96.98
2019-04-26T06:06:06.849Z,96.70
2019-04-26T06:07:07.329Z,97.18
2019-04-26T06:08:07.826Z,96.83
2019-04-26T06:09:08.257Z,97.35
2019-04-26T06:10:08.681Z,96.87
2019-04-26T06:11:09.306Z,97.11
2019-04-26T06:12:12.393Z,97.42
2019-04-26T06:13:09.248Z,97.09
2019-04-26T06:14:11.164Z,97.34
2019-04-26T06:15:11.799Z,97.33
2019-04-26T06:16:12.204Z,96.80
2019-04-26T06:17:12.959Z,97.03
2019-04-26T06:18:13.668Z,97.31
2019-04-26T06:19:14.247Z,97.21
2019-04-26T06:20:22.654Z,96.77
2019-04-26T06:21:14.567Z,96.82
2019-04-26T06:22:16.058Z,97.06
2019-04-26T06:23:16.595Z,97.71
2019-04-26T06:24:17.186Z,97.46
2019-04-26T06:25:17.599Z,97.54
2019-04-26T06:26:18.296Z,97.35
2019-04-26T06:27:18.791Z,96.89
2019-04-26T06:28:19.296Z,96.89
2019-04-26T06:29:19.963Z,97.14
2019-04-26T06:30:20.490Z,97.24
2019-04-26T06:31:21.059Z,96.89
2019-04-26T06:32:21.761Z,97.51
2019-04-26T06:33:21.307Z,97.79
2019-04-26T06:34:22.841Z,96.27
2019-04-26T06:34:31.398Z,96.35
2019-04-26T06:35:33.149Z,96.33
2019-04-26T06:36:33.791Z,96.81
2019-04-26T06:37:34.302Z,97.27
2019-04-26T06:38:43.739Z,97.69
2019-04-26T06:39:34.214Z,97.42
2019-04-26T06:40:41.793Z,97.45
2019-04-26T06:41:35.138Z,97.08
2019-04-26T06:42:35.738Z,96.87
2019-04-26T06:43:37.343Z,96.80
2019-04-26T06:44:37.774Z,96.85
2019-04-26T06:45:38.277Z,96.52
2019-04-26T06:46:38.757Z,96.85
2019-04-26T06:47:39.213Z,95.73
2019-04-26T06:48:39.715Z,96.46
2019-04-26T06:49:40.335Z,96.50
2019-04-26T06:50:40.856Z,95.95
2019-04-26T06:51:41.430Z,96.42
2019-04-26T06:52:42.037Z,96.24
2019-04-26T06:53:42.520Z,96.10
2019-04-26T06:54:43.068Z,96.32
2019-04-26T06:55:43.480Z,95.95
2019-04-26T06:56:44.203Z,96.18
2019-04-26T06:57:44.926Z,96.53
2019-04-26T06:58:45.618Z,96.23
2019-04-26T06:59:45.994Z,96.77
2019-04-26T07:00:46.895Z,95.56
2019-04-26T07:01:47.421Z,96.31
2019-04-26T07:02:47.998Z,96.50
2019-04-26T07:03:48.398Z,96.80
2019-04-26T07:04:48.881Z,95.72
2019-04-26T07:05:49.436Z,95.72
2019-04-26T07:06:49.894Z,95.82
2019-04-26T07:07:49.493Z,96.19
2019-04-26T07:08:57.696Z,96.29
2019-04-26T07:09:50.617Z,96.48
2019-04-26T07:10:52.168Z,96.65
2019-04-26T07:11:51.114Z,96.71
2019-04-26T07:12:52.748Z,96.60
2019-04-26T07:13:53.247Z,96.11
2019-04-26T07:14:54.128Z,96.72
2019-04-26T07:15:54.663Z,96.20
2019-04-26T07:16:55.208Z,95.99
2019-04-26T07:17:55.579Z,95.95
2019-04-26T07:18:56.238Z,95.64
2019-04-26T07:19:58.523Z,95.31
2019-04-26T07:20:56.228Z,95.19
2019-04-26T07:21:57.770Z,94.67
2019-04-26T07:22:58.211Z,95.17
2019-04-26T07:23:58.573Z,95.74
2019-04-26T07:24:07.114Z,95.67
2019-04-26T07:25:08.978Z,95.75
2019-04-26T07:26:08.192Z,96.16
2019-04-26T07:27:09.403Z,96.71
2019-04-26T07:28:12.218Z,96.46
2019-04-26T07:29:11.273Z,96.01
2019-04-26T07:30:12.029Z,95.98
2019-04-26T07:31:11.341Z,95.75
2019-04-26T07:32:11.792Z,95.85
2019-04-26T07:33:13.260Z,95.96
2019-04-26T07:34:13.843Z,95.47
2019-04-26T07:35:14.341Z,95.68
2019-04-26T07:36:14.817Z,95.05
2019-04-26T07:37:15.194Z,95.30
2019-04-26T07:38:15.567Z,95.60
2019-04-26T07:39:20.371Z,95.94
2019-04-26T07:40:15.457Z,96.23
2019-04-26T07:41:16.897Z,93.99
2019-04-26T07:42:17.313Z,94.46
2019-04-26T07:43:17.902Z,95.07
2019-04-26T07:44:18.106Z,94.58
2019-04-26T07:45:18.693Z,94.43
2019-04-26T07:46:19.477Z,94.49
2019-04-26T07:47:19.957Z,95.24
2019-04-26T07:48:20.581Z,95.79
2019-04-26T07:49:21.059Z,94.20
2019-04-26T07:50:21.607Z,94.80
2019-04-26T07:51:22.192Z,95.02
2019-04-26T07:52:22.610Z,95.98
2019-04-26T07:53:23.067Z,95.68
2019-04-26T07:54:23.488Z,95.07
2019-04-26T07:55:24.319Z,95.59
2019-04-26T07:56:24.030Z,95.76
2019-04-26T07:57:24.468Z,95.43
2019-04-26T07:58:25.865Z,94.49
2019-04-26T07:59:26.406Z,94.84
2019-04-26T08:00:26.852Z,95.05
2019-04-26T08:01:26.930Z,95.39
2019-04-26T08:02:27.436Z,94.85
2019-04-26T08:03:28.313Z,96.14
2019-04-26T08:04:29.606Z,95.57
2019-04-26T08:05:28.380Z,95.57
2019-04-26T08:06:29.979Z,95.41
2019-04-26T08:07:30.685Z,95.04
2019-04-26T08:08:31.299Z,95.21
2019-04-26T08:09:31.739Z,94.95
2019-04-26T08:10:32.389Z,95.43
2019-04-26T08:11:32.989Z,96.19
2019-04-26T08:12:33.427Z,95.34
2019-04-26T08:13:34.082Z,95.36
2019-04-26T08:14:34.619Z,95.36
2019-04-26T08:14:43.181Z,95.25
2019-04-26T08:15:44.662Z,95.22
2019-04-26T08:16:45.255Z,95.18
2019-04-26T08:17:45.658Z,94.89
2019-04-26T08:18:46.122Z,93.58
2019-04-26T08:19:46.618Z,94.32
2019-04-26T08:20:48.342Z,93.74
2019-04-26T08:21:47.966Z,94.09
2019-04-26T08:22:46.906Z,93.10
2019-04-26T08:23:48.327Z,93.23
2019-04-26T08:24:48.720Z,93.24
2019-04-26T08:25:49.161Z,93.10
2019-04-26T08:26:49.911Z,93.41
2019-04-26T08:27:49.928Z,93.81
2019-04-26T08:28:50.394Z,94.19
2019-04-26T08:29:50.906Z,93.75
2019-04-26T08:30:51.324Z,93.87
2019-04-26T08:31:53.627Z,93.23
2019-04-26T08:32:52.259Z,93.69
2019-04-26T08:33:52.344Z,92.92
2019-04-26T08:34:54.288Z,91.95
2019-04-26T08:35:53.501Z,92.15
2019-04-26T08:36:57.272Z,91.89
2019-04-26T08:37:54.739Z,92.33
2019-04-26T08:38:57.177Z,92.19
2019-04-26T08:39:56.772Z,92.86
2019-04-26T08:41:00.518Z,93.21
2019-04-26T08:41:57.390Z,93.62
2019-04-26T08:42:59.072Z,92.45
2019-04-26T08:44:03.254Z,91.73
2019-04-26T08:44:59.349Z,92.22
2019-04-26T08:46:03.073Z,91.66
2019-04-26T08:47:00.927Z,91.65
2019-04-26T08:48:01.334Z,91.62
2019-04-26T08:49:06.490Z,92.32
2019-04-26T08:50:02.558Z,92.17
2019-04-26T08:51:04.165Z,91.45
2019-04-26T08:52:13.909Z,91.65
2019-04-26T08:53:04.315Z,92.15
2019-04-26T08:54:06.059Z,91.60
2019-04-26T08:55:06.751Z,91.73
2019-04-26T08:56:06.363Z,90.40
2019-04-26T08:57:06.903Z,91.12
2019-04-26T08:58:08.270Z,90.39
2019-04-26T08:59:07.662Z,90.14
2019-04-26T09:00:09.530Z,90.10
2019-04-26T09:01:10.237Z,90.03
2019-04-26T09:02:11.059Z,91.29
2019-04-26T09:03:12.041Z,91.55
2019-04-26T09:04:10.841Z,92.19
2019-04-26T09:05:12.358Z,91.10
2019-04-26T09:06:12.870Z,90.46
2019-04-26T09:07:13.148Z,90.53
2019-04-26T09:08:13.277Z,91.22
2019-04-26T09:09:14.416Z,91.25
2019-04-26T09:10:13.552Z,90.37
2019-04-26T09:11:25.638Z,90.92
2019-04-26T09:12:22.868Z,89.94
2019-04-26T09:13:15.359Z,91.18
2019-04-26T09:13:23.922Z,91.25
2019-04-26T09:14:25.318Z,91.24
2019-04-26T09:15:26.074Z,90.78
2019-04-26T09:16:25.591Z,90.38
2019-04-26T09:17:27.726Z,89.93
2019-04-26T09:18:27.890Z,90.69
2019-04-26T09:19:30.588Z,90.54
2019-04-26T09:20:29.876Z,90.61
2019-04-26T09:21:28.978Z,90.89
2019-04-26T09:22:29.368Z,91.38
2019-04-26T09:23:39.944Z,90.35
2019-04-26T09:24:30.406Z,90.36
2019-04-26T09:25:34.458Z,90.95
2019-04-26T09:26:31.776Z,90.90
2019-04-26T09:27:32.177Z,89.60
2019-04-26T09:28:34.613Z,89.73
2019-04-26T09:29:34.026Z,89.58
2019-04-26T09:30:38.202Z,88.83
2019-04-26T09:31:34.045Z,89.24
2019-04-26T09:32:35.470Z,89.95
2019-04-26T09:33:37.431Z,90.42
2019-04-26T09:34:35.586Z,88.51
2019-04-26T09:35:37.070Z,88.57
2019-04-26T09:36:37.591Z,89.40
2019-04-26T09:37:38.063Z,89.45
2019-04-26T09:38:38.625Z,89.79
2019-04-26T09:39:41.553Z,89.86
2019-04-26T09:40:38.570Z,90.15
2019-04-26T09:41:40.421Z,90.67
2019-04-26T09:42:41.072Z,90.31
2019-04-26T09:43:40.443Z,89.29
2019-04-26T09:44:43.018Z,89.66
2019-04-26T09:45:41.350Z,88.52
2019-04-26T09:46:44.383Z,89.18
2019-04-26T09:47:42.370Z,89.88
2019-04-26T09:48:44.106Z,88.49
2019-04-26T09:49:44.070Z,89.05
2019-04-26T09:50:44.724Z,89.47
2019-04-26T09:51:46.247Z,89.00
2019-04-26T09:52:45.585Z,88.89
2019-04-26T09:53:47.057Z,87.86
2019-04-26T09:54:47.493Z,88.30
2019-04-26T09:55:47.912Z,88.98
2019-04-26T09:56:48.481Z,88.87
2019-04-26T09:57:49.013Z,88.38
2019-04-26T09:58:49.645Z,87.07
2019-04-26T09:59:50.164Z,87.72
2019-04-26T10:00:50.620Z,87.83
2019-04-26T10:01:51.081Z,88.04
2019-04-26T10:02:51.537Z,86.96
2019-04-26T10:03:52.337Z,86.94
2019-04-26T10:04:53.348Z,87.53
2019-04-26T10:05:55.881Z,86.81
2019-04-26T10:06:53.363Z,85.04
2019-04-26T10:07:54.803Z,85.90
2019-04-26T10:08:55.377Z,85.42
2019-04-26T10:09:56.481Z,84.70
2019-04-26T10:10:55.251Z,84.15
2019-04-26T10:11:56.821Z,84.00
2019-04-26T10:12:57.219Z,81.95
2019-04-26T10:13:05.780Z,82.88
2019-04-26T10:14:07.299Z,82.88
2019-04-26T10:15:07.344Z,83.67
2019-04-26T10:16:07.897Z,83.93
2019-04-26T10:17:11.594Z,83.97
2019-04-26T10:18:08.302Z,82.07
2019-04-26T10:19:08.578Z,82.39
2019-04-26T10:20:10.033Z,82.42
2019-04-26T10:21:10.880Z,82.18
2019-04-26T10:22:11.547Z,82.13
2019-04-26T10:23:11.995Z,81.23
2019-04-26T10:24:12.431Z,79.89
2019-04-26T10:25:16.570Z,80.51
2019-04-26T10:26:12.441Z,78.63
2019-04-26T10:27:14.019Z,79.68
2019-04-26T10:28:15.988Z,80.27
2019-04-26T10:29:13.755Z,80.10
2019-04-26T10:30:15.191Z,81.77
2019-04-26T10:31:17.231Z,81.01
2019-04-26T10:32:14.934Z,81.34
2019-04-26T10:33:16.647Z,82.36
2019-04-26T10:34:17.003Z,81.44
2019-04-26T10:35:17.503Z,81.24
2019-04-26T10:36:16.527Z,79.78
2019-04-26T10:37:18.024Z,79.62
2019-04-26T10:38:19.317Z,80.54
2019-04-26T10:39:18.349Z,80.19
2019-04-26T10:40:20.277Z,80.93
2019-04-26T10:41:20.840Z,80.12
2019-04-26T10:42:21.296Z,80.96
2019-04-26T10:43:21.855Z,79.49
2019-04-26T10:44:22.362Z,80.23
2019-04-26T10:45:23.232Z,79.28
2019-04-26T10:46:24.569Z,80.71
2019-04-26T10:47:23.138Z,79.74
2019-04-26T10:48:24.623Z,78.50
2019-04-26T10:49:26.063Z,78.99
2019-04-26T10:50:24.502Z,79.12
2019-04-26T10:51:25.886Z,79.25
2019-04-26T10:52:26.390Z,79.28
2019-04-26T10:53:30.005Z,80.18
2019-04-26T10:54:26.239Z,79.52
2019-04-26T10:55:27.760Z,79.40
2019-04-26T10:56:28.362Z,79.53
2019-04-26T10:57:28.928Z,79.64
2019-04-26T10:58:31.852Z,80.36
2019-04-26T10:59:31.662Z,79.84
2019-04-26T11:00:29.679Z,79.63
2019-04-26T11:01:30.181Z,77.96
2019-04-26T11:02:31.819Z,77.82
2019-04-26T11:03:34.946Z,77.86
2019-04-26T11:04:32.025Z,79.26
2019-04-26T11:05:33.051Z,79.27
2019-04-26T11:06:33.777Z,77.86
2019-04-26T11:07:34.380Z,78.24
2019-04-26T11:07:43.437Z,77.40
2019-04-26T11:08:44.773Z,77.48
2019-04-26T11:09:45.360Z,76.74
2019-04-26T11:10:48.922Z,77.27
2019-04-26T11:11:45.218Z,77.05
2019-04-26T11:12:46.873Z,76.57
2019-04-26T11:13:47.493Z,78.22
2019-04-26T11:14:48.194Z,77.12
2019-04-26T11:15:47.537Z,77.45
2019-04-26T11:16:49.179Z,77.99
2019-04-26T11:17:50.130Z,78.39
2019-04-26T11:18:49.141Z,78.93
2019-04-26T11:19:50.253Z,77.28
2019-04-26T11:20:51.079Z,77.86
2019-04-26T11:21:54.725Z,75.73
2019-04-26T11:22:51.523Z,76.69
2019-04-26T11:23:53.235Z,77.37
2019-04-26T11:24:54.805Z,78.50
2019-04-26T11:25:53.473Z,76.97
2019-04-26T11:26:53.868Z,77.64
2019-04-26T11:27:55.219Z,77.22
2019-04-26T11:28:57.151Z,76.97
2019-04-26T11:29:55.268Z,77.14
2019-04-26T11:30:57.371Z,76.29
2019-04-26T11:31:58.525Z,75.34
2019-04-26T11:32:56.506Z,74.95
2019-04-26T11:34:05.109Z,75.79
2019-04-26T11:34:58.793Z,75.61
2019-04-26T11:35:58.614Z,76.65
2019-04-26T11:37:00.198Z,76.66
2019-04-26T11:38:00.894Z,76.37
2019-04-26T11:39:01.307Z,76.97
2019-04-26T11:40:00.923Z,75.78
2019-04-26T11:41:06.114Z,76.63
2019-04-26T11:42:01.764Z,76.82
2019-04-26T11:43:03.574Z,76.58
2019-04-26T11:44:03.926Z,75.70
2019-04-26T11:45:06.320Z,75.26
2019-04-26T11:46:04.898Z,75.80
2019-04-26T11:47:07.807Z,76.24
2019-04-26T11:48:04.588Z,75.55
2019-04-26T11:49:07.196Z,76.38
2019-04-26T11:50:05.592Z,76.77
2019-04-26T11:51:06.497Z,77.05
2019-04-26T11:52:07.997Z,76.60
2019-04-26T11:53:10.115Z,76.26
2019-04-26T11:54:08.011Z,76.08
2019-04-26T11:55:09.582Z,76.21
2019-04-26T11:56:10.240Z,75.39
2019-04-26T11:57:11.965Z,74.10
2019-04-26T11:58:10.654Z,73.73
2019-04-26T11:59:12.679Z,74.91
2019-04-26T12:00:13.184Z,74.31
2019-04-26T12:01:13.725Z,74.26
2019-04-26T12:02:16.190Z,75.04
2019-04-26T12:03:13.972Z,75.19
2019-04-26T12:04:15.743Z,75.14
2019-04-26T12:05:16.370Z,75.54
2019-04-26T12:06:17.166Z,75.19
2019-04-26T12:07:17.743Z,73.95
2019-04-26T12:08:18.195Z,73.95
2019-04-26T12:09:18.684Z,73.19
2019-04-26T12:10:19.116Z,72.64
2019-04-26T12:10:33.690Z,72.02
2019-04-26T12:11:35.387Z,72.20
2019-04-26T12:12:34.805Z,72.94
2019-04-26T12:13:36.413Z,73.17
2019-04-26T12:14:35.875Z,73.49
2019-04-26T12:15:39.078Z,73.91
2019-04-26T12:16:48.094Z,75.05
2019-04-26T12:17:38.003Z,74.61
2019-04-26T12:18:40.310Z,74.33
2019-04-26T12:19:38.990Z,74.50
2019-04-26T12:20:40.630Z,74.04
2019-04-26T12:21:39.814Z,74.40
2019-04-26T12:22:43.311Z,73.86
2019-04-26T12:23:41.317Z,75.58
2019-04-26T12:24:43.181Z,75.24
2019-04-26T12:25:48.053Z,75.20
2019-04-26T12:26:46.235Z,75.88
2019-04-26T12:27:44.641Z,76.57
2019-04-26T12:28:45.290Z,75.62
2019-04-26T12:29:48.285Z,75.53
2019-04-26T12:30:46.844Z,75.55
2019-04-26T12:31:48.359Z,73.93
2019-04-26T12:32:50.047Z,74.74
2019-04-26T12:33:48.523Z,74.01
2019-04-26T12:34:50.150Z,74.26
2019-04-26T12:35:56.802Z,73.56
2019-04-26T12:36:50.358Z,73.62
2019-04-26T12:37:54.750Z,73.81
2019-04-26T12:38:51.734Z,74.12
2019-04-26T12:39:53.332Z,73.48
2019-04-26T12:40:54.083Z,73.35
2019-04-26T12:41:53.596Z,74.14
2019-04-26T12:42:55.033Z,73.01
2019-04-26T12:43:59.673Z,72.73
2019-04-26T12:44:55.132Z,72.95
2019-04-26T12:45:56.766Z,72.67
2019-04-26T12:46:59.386Z,72.21
2019-04-26T12:47:56.858Z,71.88
2019-04-26T12:48:58.401Z,73.15